sensor_id;sensor_type;location;lat;lon;timestamp;P1;durP1;ratioP1;P2;durP2;ratioP2
14599;SDS011;7386;45.586;12.854;2023-04-25T00:00:27;11.67;;;9.90;;
14599;SDS011;7386;45.586;12.854;2023-04-25T00:02:55;12.23;;;10.17;;
14599;SDS011;7386;45.586;12.854;2023-04-25T00:05:26;13.33;;;11.00;;
14599;SDS011;7386;45.586;12.854;2023-04-25T00:07:55;12.80;;;11.00;;
14599;SDS011;7386;45.586;12.854;2023-04-25T00:10:25;13.07;;;10.90;;
14599;SDS011;7386;45.586;12.854;2023-04-25T00:12:53;12.17;;;10.57;;
14599;SDS011;7386;45.586;12.854;2023-04-25T00:15:23;13.47;;;11.60;;
14599;SDS011;7386;45.586;12.854;2023-04-25T00:17:52;15.70;;;11.30;;
14599;SDS011;7386;45.586;12.854;2023-04-25T00:20:20;12.67;;;11.07;;
14599;SDS011;7386;45.586;12.854;2023-04-25T00:22:49;13.47;;;11.43;;
14599;SDS011;7386;45.586;12.854;2023-04-25T00:25:19;13.50;;;11.57;;
14599;SDS011;7386;45.586;12.854;2023-04-25T00:27:47;13.60;;;11.13;;
14599;SDS011;7386;45.586;12.854;2023-04-25T00:30:16;14.07;;;11.80;;
14599;SDS011;7386;45.586;12.854;2023-04-25T00:32:45;15.80;;;12.00;;
14599;SDS011;7386;45.586;12.854;2023-04-25T00:35:15;14.17;;;12.03;;
14599;SDS011;7386;45.586;12.854;2023-04-25T00:37:43;13.60;;;11.63;;
14599;SDS011;7386;45.586;12.854;2023-04-25T00:40:12;13.03;;;11.33;;
14599;SDS011;7386;45.586;12.854;2023-04-25T00:42:40;13.30;;;11.47;;
14599;SDS011;7386;45.586;12.854;2023-04-25T00:45:09;14.30;;;12.37;;
14599;SDS011;7386;45.586;12.854;2023-04-25T00:47:40;12.67;;;11.23;;
14599;SDS011;7386;45.586;12.854;2023-04-25T00:50:10;15.60;;;12.53;;
14599;SDS011;7386;45.586;12.854;2023-04-25T00:52:40;13.87;;;11.87;;
14599;SDS011;7386;45.586;12.854;2023-04-25T00:55:08;13.87;;;12.07;;
14599;SDS011;7386;45.586;12.854;2023-04-25T00:57:38;13.57;;;11.60;;
14599;SDS011;7386;45.586;12.854;2023-04-25T01:00:07;14.20;;;12.03;;
14599;SDS011;7386;45.586;12.854;2023-04-25T01:02:37;13.57;;;11.30;;
14599;SDS011;7386;45.586;12.854;2023-04-25T01:05:06;14.60;;;11.93;;
14599;SDS011;7386;45.586;12.854;2023-04-25T01:07:36;14.10;;;12.60;;
14599;SDS011;7386;45.586;12.854;2023-04-25T01:10:05;15.73;;;12.67;;
14599;SDS011;7386;45.586;12.854;2023-04-25T01:12:33;15.17;;;12.77;;
14599;SDS011;7386;45.586;12.854;2023-04-25T01:15:02;14.80;;;13.07;;
14599;SDS011;7386;45.586;12.854;2023-04-25T01:17:31;14.70;;;12.83;;
14599;SDS011;7386;45.586;12.854;2023-04-25T01:19:59;15.93;;;13.07;;
14599;SDS011;7386;45.586;12.854;2023-04-25T01:22:31;16.67;;;13.17;;
14599;SDS011;7386;45.586;12.854;2023-04-25T01:24:59;16.10;;;12.63;;
14599;SDS011;7386;45.586;12.854;2023-04-25T01:27:28;15.07;;;13.23;;
14599;SDS011;7386;45.586;12.854;2023-04-25T01:29:57;15.63;;;13.57;;
14599;SDS011;7386;45.586;12.854;2023-04-25T01:32:26;17.30;;;13.37;;
14599;SDS011;7386;45.586;12.854;2023-04-25T01:34:54;17.33;;;13.93;;
14599;SDS011;7386;45.586;12.854;2023-04-25T01:37:23;16.53;;;13.47;;
14599;SDS011;7386;45.586;12.854;2023-04-25T01:39:53;15.40;;;13.17;;
14599;SDS011;7386;45.586;12.854;2023-04-25T01:42:21;15.67;;;12.83;;
14599;SDS011;7386;45.586;12.854;2023-04-25T01:44:50;15.43;;;12.80;;
14599;SDS011;7386;45.586;12.854;2023-04-25T01:47:18;17.07;;;12.93;;
14599;SDS011;7386;45.586;12.854;2023-04-25T01:49:47;15.73;;;12.63;;
14599;SDS011;7386;45.586;12.854;2023-04-25T01:52:15;14.57;;;11.93;;
14599;SDS011;7386;45.586;12.854;2023-04-25T01:54:44;15.00;;;12.33;;
14599;SDS011;7386;45.586;12.854;2023-04-25T01:57:13;15.63;;;12.70;;
14599;SDS011;7386;45.586;12.854;2023-04-25T01:59:42;15.97;;;12.13;;
14599;SDS011;7386;45.586;12.854;2023-04-25T02:02:11;14.93;;;12.53;;
14599;SDS011;7386;45.586;12.854;2023-04-25T02:04:39;15.63;;;12.57;;
14599;SDS011;7386;45.586;12.854;2023-04-25T02:07:08;17.87;;;13.00;;
14599;SDS011;7386;45.586;12.854;2023-04-25T02:09:37;17.63;;;13.40;;
14599;SDS011;7386;45.586;12.854;2023-04-25T02:12:05;16.57;;;12.97;;
14599;SDS011;7386;45.586;12.854;2023-04-25T02:14:35;16.03;;;12.57;;
14599;SDS011;7386;45.586;12.854;2023-04-25T02:17:03;16.07;;;12.80;;
14599;SDS011;7386;45.586;12.854;2023-04-25T02:19:32;16.53;;;13.63;;
14599;SDS011;7386;45.586;12.854;2023-04-25T02:22:01;16.17;;;13.07;;
14599;SDS011;7386;45.586;12.854;2023-04-25T02:24:29;18.30;;;13.70;;
14599;SDS011;7386;45.586;12.854;2023-04-25T02:26:59;18.53;;;14.13;;
14599;SDS011;7386;45.586;12.854;2023-04-25T02:29:29;20.27;;;14.47;;
14599;SDS011;7386;45.586;12.854;2023-04-25T02:31:59;18.33;;;14.80;;
14599;SDS011;7386;45.586;12.854;2023-04-25T02:34:27;17.53;;;14.30;;
14599;SDS011;7386;45.586;12.854;2023-04-25T02:36:56;16.80;;;14.20;;
14599;SDS011;7386;45.586;12.854;2023-04-25T02:39:24;17.50;;;14.90;;
14599;SDS011;7386;45.586;12.854;2023-04-25T02:41:53;17.90;;;14.63;;
14599;SDS011;7386;45.586;12.854;2023-04-25T02:44:22;17.00;;;13.73;;
14599;SDS011;7386;45.586;12.854;2023-04-25T02:46:50;17.93;;;14.10;;
14599;SDS011;7386;45.586;12.854;2023-04-25T02:49:20;16.40;;;13.77;;
14599;SDS011;7386;45.586;12.854;2023-04-25T02:51:48;17.27;;;14.23;;
14599;SDS011;7386;45.586;12.854;2023-04-25T02:54:17;15.87;;;13.20;;
14599;SDS011;7386;45.586;12.854;2023-04-25T02:56:45;16.53;;;13.43;;
14599;SDS011;7386;45.586;12.854;2023-04-25T02:59:14;15.30;;;13.13;;
14599;SDS011;7386;45.586;12.854;2023-04-25T03:01:42;18.43;;;14.63;;
14599;SDS011;7386;45.586;12.854;2023-04-25T03:04:11;15.50;;;12.90;;
14599;SDS011;7386;45.586;12.854;2023-04-25T03:06:41;14.30;;;12.73;;
14599;SDS011;7386;45.586;12.854;2023-04-25T03:09:10;15.97;;;13.33;;
14599;SDS011;7386;45.586;12.854;2023-04-25T03:11:38;14.50;;;12.70;;
14599;SDS011;7386;45.586;12.854;2023-04-25T03:14:07;16.33;;;13.07;;
14599;SDS011;7386;45.586;12.854;2023-04-25T03:16:35;15.77;;;12.90;;
14599;SDS011;7386;45.586;12.854;2023-04-25T03:19:03;14.77;;;12.40;;
14599;SDS011;7386;45.586;12.854;2023-04-25T03:21:32;16.47;;;13.80;;
14599;SDS011;7386;45.586;12.854;2023-04-25T03:24:03;17.33;;;13.67;;
14599;SDS011;7386;45.586;12.854;2023-04-25T03:26:32;17.10;;;14.43;;
14599;SDS011;7386;45.586;12.854;2023-04-25T03:29:00;15.73;;;13.80;;
14599;SDS011;7386;45.586;12.854;2023-04-25T03:31:30;16.63;;;13.57;;
14599;SDS011;7386;45.586;12.854;2023-04-25T03:33:58;15.30;;;12.80;;
14599;SDS011;7386;45.586;12.854;2023-04-25T03:36:27;15.73;;;12.83;;
14599;SDS011;7386;45.586;12.854;2023-04-25T03:38:55;15.30;;;12.57;;
14599;SDS011;7386;45.586;12.854;2023-04-25T03:41:25;15.47;;;12.80;;
14599;SDS011;7386;45.586;12.854;2023-04-25T03:43:54;15.13;;;12.30;;
14599;SDS011;7386;45.586;12.854;2023-04-25T03:46:22;14.10;;;11.57;;
14599;SDS011;7386;45.586;12.854;2023-04-25T03:48:51;13.33;;;11.67;;
14599;SDS011;7386;45.586;12.854;2023-04-25T03:51:19;15.13;;;12.23;;
14599;SDS011;7386;45.586;12.854;2023-04-25T03:53:49;14.67;;;12.33;;
14599;SDS011;7386;45.586;12.854;2023-04-25T03:56:18;13.60;;;11.93;;
14599;SDS011;7386;45.586;12.854;2023-04-25T03:58:48;14.07;;;11.93;;
14599;SDS011;7386;45.586;12.854;2023-04-25T04:01:16;13.90;;;12.40;;
14599;SDS011;7386;45.586;12.854;2023-04-25T04:03:45;16.23;;;12.07;;
14599;SDS011;7386;45.586;12.854;2023-04-25T04:06:13;14.10;;;11.87;;
14599;SDS011;7386;45.586;12.854;2023-04-25T04:08:42;13.77;;;11.17;;
14599;SDS011;7386;45.586;12.854;2023-04-25T04:11:10;13.97;;;11.30;;
14599;SDS011;7386;45.586;12.854;2023-04-25T04:13:39;12.77;;;10.40;;
14599;SDS011;7386;45.586;12.854;2023-04-25T04:16:08;12.10;;;10.13;;
14599;SDS011;7386;45.586;12.854;2023-04-25T04:18:37;11.63;;;9.77;;
14599;SDS011;7386;45.586;12.854;2023-04-25T04:21:06;13.57;;;9.60;;
14599;SDS011;7386;45.586;12.854;2023-04-25T04:23:34;11.13;;;9.10;;
14599;SDS011;7386;45.586;12.854;2023-04-25T04:26:12;10.33;;;8.87;;
14599;SDS011;7386;45.586;12.854;2023-04-25T04:28:41;11.07;;;9.57;;
14599;SDS011;7386;45.586;12.854;2023-04-25T04:31:12;10.77;;;8.67;;
14599;SDS011;7386;45.586;12.854;2023-04-25T04:33:43;12.37;;;9.17;;
14599;SDS011;7386;45.586;12.854;2023-04-25T04:36:12;11.33;;;9.17;;
14599;SDS011;7386;45.586;12.854;2023-04-25T04:38:40;9.87;;;8.07;;
14599;SDS011;7386;45.586;12.854;2023-04-25T04:41:09;9.87;;;7.90;;
14599;SDS011;7386;45.586;12.854;2023-04-25T04:43:37;10.87;;;7.97;;
14599;SDS011;7386;45.586;12.854;2023-04-25T04:46:06;9.60;;;7.80;;
14599;SDS011;7386;45.586;12.854;2023-04-25T04:48:38;10.13;;;7.40;;
14599;SDS011;7386;45.586;12.854;2023-04-25T04:51:06;8.90;;;6.50;;
14599;SDS011;7386;45.586;12.854;2023-04-25T04:53:35;9.37;;;7.60;;
14599;SDS011;7386;45.586;12.854;2023-04-25T04:56:04;9.47;;;7.40;;
14599;SDS011;7386;45.586;12.854;2023-04-25T04:58:32;9.47;;;6.97;;
14599;SDS011;7386;45.586;12.854;2023-04-25T05:01:01;8.57;;;7.07;;
14599;SDS011;7386;45.586;12.854;2023-04-25T05:03:30;8.43;;;6.77;;
14599;SDS011;7386;45.586;12.854;2023-04-25T05:06:00;9.10;;;7.10;;
14599;SDS011;7386;45.586;12.854;2023-04-25T05:08:28;9.23;;;7.00;;
14599;SDS011;7386;45.586;12.854;2023-04-25T05:10:57;7.63;;;6.50;;
14599;SDS011;7386;45.586;12.854;2023-04-25T05:13:25;9.50;;;6.53;;
14599;SDS011;7386;45.586;12.854;2023-04-25T05:15:54;7.20;;;6.07;;
14599;SDS011;7386;45.586;12.854;2023-04-25T05:18:22;8.00;;;6.40;;
14599;SDS011;7386;45.586;12.854;2023-04-25T05:20:51;8.50;;;6.60;;
14599;SDS011;7386;45.586;12.854;2023-04-25T05:23:21;7.13;;;5.70;;
14599;SDS011;7386;45.586;12.854;2023-04-25T05:25:49;8.40;;;6.30;;
14599;SDS011;7386;45.586;12.854;2023-04-25T05:28:18;7.00;;;5.83;;
14599;SDS011;7386;45.586;12.854;2023-04-25T05:30:48;7.07;;;5.70;;
14599;SDS011;7386;45.586;12.854;2023-04-25T05:33:17;7.03;;;5.77;;
14599;SDS011;7386;45.586;12.854;2023-04-25T05:35:45;6.43;;;5.37;;
14599;SDS011;7386;45.586;12.854;2023-04-25T05:38:14;9.23;;;5.67;;
14599;SDS011;7386;45.586;12.854;2023-04-25T05:40:44;5.87;;;4.83;;
14599;SDS011;7386;45.586;12.854;2023-04-25T05:43:12;7.67;;;5.23;;
14599;SDS011;7386;45.586;12.854;2023-04-25T05:45:41;7.47;;;4.90;;
14599;SDS011;7386;45.586;12.854;2023-04-25T05:48:09;8.90;;;4.83;;
14599;SDS011;7386;45.586;12.854;2023-04-25T05:50:38;6.17;;;5.00;;
14599;SDS011;7386;45.586;12.854;2023-04-25T05:53:06;8.17;;;4.63;;
14599;SDS011;7386;45.586;12.854;2023-04-25T05:55:35;5.93;;;4.33;;
14599;SDS011;7386;45.586;12.854;2023-04-25T05:58:06;7.50;;;4.57;;
14599;SDS011;7386;45.586;12.854;2023-04-25T06:00:34;6.30;;;4.20;;
14599;SDS011;7386;45.586;12.854;2023-04-25T06:03:03;5.40;;;3.97;;
14599;SDS011;7386;45.586;12.854;2023-04-25T06:05:34;7.90;;;4.20;;
14599;SDS011;7386;45.586;12.854;2023-04-25T06:08:02;6.90;;;4.17;;
14599;SDS011;7386;45.586;12.854;2023-04-25T06:10:31;7.03;;;4.30;;
14599;SDS011;7386;45.586;12.854;2023-04-25T06:12:59;7.07;;;4.30;;
14599;SDS011;7386;45.586;12.854;2023-04-25T06:15:29;5.90;;;4.30;;
14599;SDS011;7386;45.586;12.854;2023-04-25T06:17:58;4.67;;;3.87;;
14599;SDS011;7386;45.586;12.854;2023-04-25T06:20:27;5.40;;;4.03;;
14599;SDS011;7386;45.586;12.854;2023-04-25T06:22:55;6.67;;;4.43;;
14599;SDS011;7386;45.586;12.854;2023-04-25T06:25:24;6.93;;;4.30;;
14599;SDS011;7386;45.586;12.854;2023-04-25T06:27:53;7.00;;;4.23;;
14599;SDS011;7386;45.586;12.854;2023-04-25T06:30:21;6.60;;;4.53;;
14599;SDS011;7386;45.586;12.854;2023-04-25T06:32:53;6.90;;;3.93;;
14599;SDS011;7386;45.586;12.854;2023-04-25T06:35:21;5.60;;;4.30;;
14599;SDS011;7386;45.586;12.854;2023-04-25T06:37:50;6.53;;;4.37;;
14599;SDS011;7386;45.586;12.854;2023-04-25T06:40:18;6.77;;;4.80;;
14599;SDS011;7386;45.586;12.854;2023-04-25T06:42:47;7.83;;;5.20;;
14599;SDS011;7386;45.586;12.854;2023-04-25T06:45:15;8.70;;;5.73;;
14599;SDS011;7386;45.586;12.854;2023-04-25T06:47:43;6.10;;;4.40;;
14599;SDS011;7386;45.586;12.854;2023-04-25T06:50:13;6.17;;;5.00;;
14599;SDS011;7386;45.586;12.854;2023-04-25T06:52:42;6.90;;;4.43;;
14599;SDS011;7386;45.586;12.854;2023-04-25T06:55:10;5.07;;;3.57;;
14599;SDS011;7386;45.586;12.854;2023-04-25T06:57:39;5.10;;;3.80;;
14599;SDS011;7386;45.586;12.854;2023-04-25T07:00:08;6.50;;;4.70;;
14599;SDS011;7386;45.586;12.854;2023-04-25T07:02:37;5.63;;;4.00;;
14599;SDS011;7386;45.586;12.854;2023-04-25T07:05:07;7.30;;;4.10;;
14599;SDS011;7386;45.586;12.854;2023-04-25T07:07:36;10.97;;;5.13;;
14599;SDS011;7386;45.586;12.854;2023-04-25T07:10:05;5.83;;;4.07;;
14599;SDS011;7386;45.586;12.854;2023-04-25T07:12:34;7.23;;;3.87;;
14599;SDS011;7386;45.586;12.854;2023-04-25T07:15:02;7.40;;;5.10;;
14599;SDS011;7386;45.586;12.854;2023-04-25T07:17:32;7.30;;;4.43;;
14599;SDS011;7386;45.586;12.854;2023-04-25T07:20:01;7.00;;;4.70;;
14599;SDS011;7386;45.586;12.854;2023-04-25T07:22:30;7.23;;;4.30;;
14599;SDS011;7386;45.586;12.854;2023-04-25T07:24:59;6.47;;;4.70;;
14599;SDS011;7386;45.586;12.854;2023-04-25T07:27:29;5.47;;;4.27;;
14599;SDS011;7386;45.586;12.854;2023-04-25T07:29:57;5.90;;;4.50;;
14599;SDS011;7386;45.586;12.854;2023-04-25T07:32:26;8.43;;;5.17;;
14599;SDS011;7386;45.586;12.854;2023-04-25T07:34:54;7.77;;;5.17;;
14599;SDS011;7386;45.586;12.854;2023-04-25T07:37:23;7.53;;;4.50;;
14599;SDS011;7386;45.586;12.854;2023-04-25T07:39:51;6.90;;;5.30;;
14599;SDS011;7386;45.586;12.854;2023-04-25T07:42:21;8.83;;;5.90;;
14599;SDS011;7386;45.586;12.854;2023-04-25T07:44:49;6.03;;;4.93;;
14599;SDS011;7386;45.586;12.854;2023-04-25T07:47:18;6.87;;;4.50;;
14599;SDS011;7386;45.586;12.854;2023-04-25T07:49:46;9.07;;;5.60;;
14599;SDS011;7386;45.586;12.854;2023-04-25T07:52:15;7.53;;;5.40;;
14599;SDS011;7386;45.586;12.854;2023-04-25T07:54:43;9.00;;;4.80;;
14599;SDS011;7386;45.586;12.854;2023-04-25T07:57:12;8.20;;;4.77;;
14599;SDS011;7386;45.586;12.854;2023-04-25T07:59:42;8.70;;;5.50;;
14599;SDS011;7386;45.586;12.854;2023-04-25T08:02:11;6.37;;;4.80;;
14599;SDS011;7386;45.586;12.854;2023-04-25T08:04:39;6.30;;;4.60;;
14599;SDS011;7386;45.586;12.854;2023-04-25T08:07:08;10.13;;;4.97;;
14599;SDS011;7386;45.586;12.854;2023-04-25T08:09:37;6.37;;;4.60;;
14599;SDS011;7386;45.586;12.854;2023-04-25T08:12:05;6.93;;;4.63;;
14599;SDS011;7386;45.586;12.854;2023-04-25T08:14:34;7.37;;;4.43;;
14599;SDS011;7386;45.586;12.854;2023-04-25T08:17:05;9.13;;;5.27;;
14599;SDS011;7386;45.586;12.854;2023-04-25T08:19:33;9.17;;;5.20;;
14599;SDS011;7386;45.586;12.854;2023-04-25T08:22:02;7.20;;;4.77;;
14599;SDS011;7386;45.586;12.854;2023-04-25T08:24:30;7.83;;;5.53;;
14599;SDS011;7386;45.586;12.854;2023-04-25T08:26:59;10.53;;;6.50;;
14599;SDS011;7386;45.586;12.854;2023-04-25T08:29:28;8.03;;;5.27;;
14599;SDS011;7386;45.586;12.854;2023-04-25T08:31:57;7.83;;;4.87;;
14599;SDS011;7386;45.586;12.854;2023-04-25T08:34:27;7.87;;;5.30;;
14599;SDS011;7386;45.586;12.854;2023-04-25T08:36:55;9.63;;;5.03;;
14599;SDS011;7386;45.586;12.854;2023-04-25T08:39:24;8.37;;;4.57;;
14599;SDS011;7386;45.586;12.854;2023-04-25T08:41:52;8.70;;;4.17;;
14599;SDS011;7386;45.586;12.854;2023-04-25T08:44:21;8.17;;;4.30;;
14599;SDS011;7386;45.586;12.854;2023-04-25T08:46:50;4.93;;;3.40;;
14599;SDS011;7386;45.586;12.854;2023-04-25T08:49:20;5.90;;;3.23;;
14599;SDS011;7386;45.586;12.854;2023-04-25T08:51:50;7.03;;;3.27;;
14599;SDS011;7386;45.586;12.854;2023-04-25T08:54:20;4.67;;;3.00;;
14599;SDS011;7386;45.586;12.854;2023-04-25T08:57:02;4.47;;;3.03;;
14599;SDS011;7386;45.586;12.854;2023-04-25T08:59:31;7.10;;;3.43;;
14599;SDS011;7386;45.586;12.854;2023-04-25T09:02:03;4.27;;;3.07;;
14599;SDS011;7386;45.586;12.854;2023-04-25T09:04:31;5.07;;;3.03;;
14599;SDS011;7386;45.586;12.854;2023-04-25T09:07:01;5.13;;;3.37;;
14599;SDS011;7386;45.586;12.854;2023-04-25T09:09:30;6.30;;;3.77;;
14599;SDS011;7386;45.586;12.854;2023-04-25T09:11:58;6.00;;;3.67;;
14599;SDS011;7386;45.586;12.854;2023-04-25T09:14:27;6.00;;;3.10;;
14599;SDS011;7386;45.586;12.854;2023-04-25T09:17:00;5.73;;;3.47;;
14599;SDS011;7386;45.586;12.854;2023-04-25T09:19:29;6.27;;;3.30;;
14599;SDS011;7386;45.586;12.854;2023-04-25T09:22:07;5.10;;;3.10;;
14599;SDS011;7386;45.586;12.854;2023-04-25T09:24:37;5.13;;;2.83;;
14599;SDS011;7386;45.586;12.854;2023-04-25T09:27:07;5.50;;;3.27;;
14599;SDS011;7386;45.586;12.854;2023-04-25T09:29:37;5.40;;;2.90;;
14599;SDS011;7386;45.586;12.854;2023-04-25T09:32:16;6.87;;;3.40;;
14599;SDS011;7386;45.586;12.854;2023-04-25T09:34:46;4.80;;;2.60;;
14599;SDS011;7386;45.586;12.854;2023-04-25T09:37:19;6.40;;;2.60;;
14599;SDS011;7386;45.586;12.854;2023-04-25T09:39:50;5.20;;;2.57;;
14599;SDS011;7386;45.586;12.854;2023-04-25T09:42:21;5.00;;;2.00;;
14599;SDS011;7386;45.586;12.854;2023-04-25T09:44:51;4.80;;;2.10;;
14599;SDS011;7386;45.586;12.854;2023-04-25T09:47:20;2.90;;;2.07;;
14599;SDS011;7386;45.586;12.854;2023-04-25T09:49:50;4.37;;;2.10;;
14599;SDS011;7386;45.586;12.854;2023-04-25T09:52:20;5.77;;;2.30;;
14599;SDS011;7386;45.586;12.854;2023-04-25T09:54:51;3.30;;;1.80;;
14599;SDS011;7386;45.586;12.854;2023-04-25T09:57:20;4.23;;;2.27;;
14599;SDS011;7386;45.586;12.854;2023-04-25T09:59:49;3.93;;;2.00;;
14599;SDS011;7386;45.586;12.854;2023-04-25T10:02:18;4.07;;;2.23;;
14599;SDS011;7386;45.586;12.854;2023-04-25T10:04:48;5.57;;;2.30;;
14599;SDS011;7386;45.586;12.854;2023-04-25T10:07:20;2.87;;;2.03;;
14599;SDS011;7386;45.586;12.854;2023-04-25T10:09:54;4.33;;;2.13;;
14599;SDS011;7386;45.586;12.854;2023-04-25T10:12:23;6.40;;;2.37;;
14599;SDS011;7386;45.586;12.854;2023-04-25T10:14:51;9.63;;;2.53;;
14599;SDS011;7386;45.586;12.854;2023-04-25T10:17:20;3.17;;;2.00;;
14599;SDS011;7386;45.586;12.854;2023-04-25T10:19:49;4.77;;;1.90;;
14599;SDS011;7386;45.586;12.854;2023-04-25T10:22:20;4.30;;;2.23;;
14599;SDS011;7386;45.586;12.854;2023-04-25T10:24:50;5.40;;;1.80;;
14599;SDS011;7386;45.586;12.854;2023-04-25T10:27:19;5.43;;;1.67;;
14599;SDS011;7386;45.586;12.854;2023-04-25T10:29:52;2.40;;;1.70;;
14599;SDS011;7386;45.586;12.854;2023-04-25T10:32:28;1.90;;;1.70;;
14599;SDS011;7386;45.586;12.854;2023-04-25T10:35:04;2.00;;;1.80;;
14599;SDS011;7386;45.586;12.854;2023-04-25T10:37:39;3.13;;;1.73;;
14599;SDS011;7386;45.586;12.854;2023-04-25T10:40:24;2.67;;;1.53;;
14599;SDS011;7386;45.586;12.854;2023-04-25T10:42:53;4.33;;;1.77;;
14599;SDS011;7386;45.586;12.854;2023-04-25T10:45:22;4.07;;;1.90;;
14599;SDS011;7386;45.586;12.854;2023-04-25T10:47:50;2.77;;;1.67;;
14599;SDS011;7386;45.586;12.854;2023-04-25T10:50:19;4.10;;;1.67;;
14599;SDS011;7386;45.586;12.854;2023-04-25T10:52:49;1.90;;;1.50;;
14599;SDS011;7386;45.586;12.854;2023-04-25T10:55:17;2.67;;;1.80;;
14599;SDS011;7386;45.586;12.854;2023-04-25T10:57:46;10.27;;;2.03;;
14599;SDS011;7386;45.586;12.854;2023-04-25T11:00:16;3.73;;;1.83;;
14599;SDS011;7386;45.586;12.854;2023-04-25T11:02:46;4.67;;;1.70;;
14599;SDS011;7386;45.586;12.854;2023-04-25T11:05:16;2.93;;;1.63;;
14599;SDS011;7386;45.586;12.854;2023-04-25T11:07:53;3.77;;;1.77;;
14599;SDS011;7386;45.586;12.854;2023-04-25T11:10:26;2.50;;;1.60;;
14599;SDS011;7386;45.586;12.854;2023-04-25T11:12:55;4.17;;;1.80;;
14599;SDS011;7386;45.586;12.854;2023-04-25T11:15:23;4.27;;;1.90;;
14599;SDS011;7386;45.586;12.854;2023-04-25T11:17:52;4.80;;;2.00;;
14599;SDS011;7386;45.586;12.854;2023-04-25T11:20:21;3.40;;;2.10;;
14599;SDS011;7386;45.586;12.854;2023-04-25T11:22:52;1.90;;;1.60;;
14599;SDS011;7386;45.586;12.854;2023-04-25T11:25:22;2.23;;;1.60;;
14599;SDS011;7386;45.586;12.854;2023-04-25T11:27:51;4.90;;;1.70;;
14599;SDS011;7386;45.586;12.854;2023-04-25T11:30:20;2.40;;;1.80;;
14599;SDS011;7386;45.586;12.854;2023-04-25T11:32:48;6.10;;;1.73;;
14599;SDS011;7386;45.586;12.854;2023-04-25T11:35:19;5.97;;;1.80;;
14599;SDS011;7386;45.586;12.854;2023-04-25T11:37:49;4.27;;;1.90;;
14599;SDS011;7386;45.586;12.854;2023-04-25T11:40:19;4.10;;;1.57;;
14599;SDS011;7386;45.586;12.854;2023-04-25T11:42:48;3.73;;;1.70;;
14599;SDS011;7386;45.586;12.854;2023-04-25T11:45:20;5.03;;;1.97;;
14599;SDS011;7386;45.586;12.854;2023-04-25T11:47:48;2.50;;;1.77;;
14599;SDS011;7386;45.586;12.854;2023-04-25T11:50:17;6.50;;;2.07;;
14599;SDS011;7386;45.586;12.854;2023-04-25T11:52:46;4.00;;;2.23;;
14599;SDS011;7386;45.586;12.854;2023-04-25T11:55:15;3.80;;;2.00;;
14599;SDS011;7386;45.586;12.854;2023-04-25T11:57:46;2.60;;;1.57;;
14599;SDS011;7386;45.586;12.854;2023-04-25T12:00:17;4.43;;;1.60;;
14599;SDS011;7386;45.586;12.854;2023-04-25T12:02:46;3.40;;;1.73;;
14599;SDS011;7386;45.586;12.854;2023-04-25T12:05:15;1.63;;;1.50;;
14599;SDS011;7386;45.586;12.854;2023-04-25T12:07:47;3.33;;;1.80;;
14599;SDS011;7386;45.586;12.854;2023-04-25T12:10:15;2.20;;;1.60;;
14599;SDS011;7386;45.586;12.854;2023-04-25T12:12:46;3.23;;;1.47;;
14599;SDS011;7386;45.586;12.854;2023-04-25T12:15:15;8.10;;;1.80;;
14599;SDS011;7386;45.586;12.854;2023-04-25T12:17:45;3.60;;;1.60;;
14599;SDS011;7386;45.586;12.854;2023-04-25T12:20:15;3.23;;;1.90;;
14599;SDS011;7386;45.586;12.854;2023-04-25T12:22:44;4.23;;;1.80;;
14599;SDS011;7386;45.586;12.854;2023-04-25T12:25:13;2.43;;;1.57;;
14599;SDS011;7386;45.586;12.854;2023-04-25T12:27:42;4.23;;;1.70;;
14599;SDS011;7386;45.586;12.854;2023-04-25T12:30:12;4.40;;;2.17;;
14599;SDS011;7386;45.586;12.854;2023-04-25T12:32:40;5.57;;;1.80;;
14599;SDS011;7386;45.586;12.854;2023-04-25T12:35:09;4.77;;;1.80;;
14599;SDS011;7386;45.586;12.854;2023-04-25T12:37:37;4.83;;;1.57;;
14599;SDS011;7386;45.586;12.854;2023-04-25T12:40:06;4.80;;;1.60;;
14599;SDS011;7386;45.586;12.854;2023-04-25T12:42:36;3.07;;;1.47;;
14599;SDS011;7386;45.586;12.854;2023-04-25T12:45:05;2.90;;;1.57;;
14599;SDS011;7386;45.586;12.854;2023-04-25T12:47:34;3.53;;;1.73;;
14599;SDS011;7386;45.586;12.854;2023-04-25T12:50:03;2.33;;;1.33;;
14599;SDS011;7386;45.586;12.854;2023-04-25T12:52:32;6.30;;;2.57;;
14599;SDS011;7386;45.586;12.854;2023-04-25T12:55:00;5.03;;;1.43;;
14599;SDS011;7386;45.586;12.854;2023-04-25T12:57:29;3.80;;;1.43;;
14599;SDS011;7386;45.586;12.854;2023-04-25T12:59:57;2.27;;;1.47;;
14599;SDS011;7386;45.586;12.854;2023-04-25T13:02:26;4.70;;;1.43;;
14599;SDS011;7386;45.586;12.854;2023-04-25T13:04:56;4.43;;;1.73;;
14599;SDS011;7386;45.586;12.854;2023-04-25T13:07:25;3.50;;;1.60;;
14599;SDS011;7386;45.586;12.854;2023-04-25T13:09:53;2.10;;;1.20;;
14599;SDS011;7386;45.586;12.854;2023-04-25T13:12:22;4.00;;;1.60;;
14599;SDS011;7386;45.586;12.854;2023-04-25T13:14:50;5.33;;;1.93;;
14599;SDS011;7386;45.586;12.854;2023-04-25T13:17:19;4.27;;;1.60;;
14599;SDS011;7386;45.586;12.854;2023-04-25T13:19:47;4.37;;;1.50;;
14599;SDS011;7386;45.586;12.854;2023-04-25T13:22:17;1.30;;;1.20;;
14599;SDS011;7386;45.586;12.854;2023-04-25T13:24:46;1.50;;;1.23;;
14599;SDS011;7386;45.586;12.854;2023-04-25T13:27:14;2.50;;;1.30;;
14599;SDS011;7386;45.586;12.854;2023-04-25T13:29:43;2.43;;;1.47;;
14599;SDS011;7386;45.586;12.854;2023-04-25T13:32:11;1.10;;;1.10;;
14599;SDS011;7386;45.586;12.854;2023-04-25T13:34:40;1.30;;;1.20;;
14599;SDS011;7386;45.586;12.854;2023-04-25T13:37:09;2.55;;;1.13;;
14599;SDS011;7386;45.586;12.854;2023-04-25T13:39:39;1.33;;;1.05;;
14599;SDS011;7386;45.586;12.854;2023-04-25T13:42:25;1.00;;;1.00;;
14599;SDS011;7386;45.586;12.854;2023-04-25T13:44:54;1.83;;;1.00;;
14599;SDS011;7386;45.586;12.854;2023-04-25T13:47:23;1.77;;;1.30;;
14599;SDS011;7386;45.586;12.854;2023-04-25T13:49:51;3.55;;;1.20;;
14599;SDS011;7386;45.586;12.854;2023-04-25T13:52:20;1.63;;;1.02;;
14599;SDS011;7386;45.586;12.854;2023-04-25T13:54:51;1.77;;;1.10;;
14599;SDS011;7386;45.586;12.854;2023-04-25T13:57:20;2.60;;;1.30;;
14599;SDS011;7386;45.586;12.854;2023-04-25T13:59:48;1.98;;;1.30;;
14599;SDS011;7386;45.586;12.854;2023-04-25T14:02:17;2.10;;;1.20;;
14599;SDS011;7386;45.586;12.854;2023-04-25T14:04:45;1.10;;;1.05;;
14599;SDS011;7386;45.586;12.854;2023-04-25T14:07:14;1.17;;;1.08;;
14599;SDS011;7386;45.586;12.854;2023-04-25T14:09:44;1.50;;;1.20;;
14599;SDS011;7386;45.586;12.854;2023-04-25T14:12:15;1.52;;;1.08;;
14599;SDS011;7386;45.586;12.854;2023-04-25T14:14:44;1.77;;;1.10;;
14599;SDS011;7386;45.586;12.854;2023-04-25T14:17:12;0.95;;;0.95;;
14599;SDS011;7386;45.586;12.854;2023-04-25T14:19:41;1.45;;;0.98;;
14599;SDS011;7386;45.586;12.854;2023-04-25T14:22:11;1.90;;;1.00;;
14599;SDS011;7386;45.586;12.854;2023-04-25T14:24:40;1.75;;;1.13;;
14599;SDS011;7386;45.586;12.854;2023-04-25T14:27:09;1.88;;;1.10;;
14599;SDS011;7386;45.586;12.854;2023-04-25T14:29:39;2.63;;;1.02;;
14599;SDS011;7386;45.586;12.854;2023-04-25T14:32:08;5.25;;;1.60;;
14599;SDS011;7386;45.586;12.854;2023-04-25T14:34:37;9.50;;;2.13;;
14599;SDS011;7386;45.586;12.854;2023-04-25T14:37:06;9.52;;;2.20;;
14599;SDS011;7386;45.586;12.854;2023-04-25T14:39:34;7.88;;;1.75;;
14599;SDS011;7386;45.586;12.854;2023-04-25T14:42:04;7.28;;;1.60;;
14599;SDS011;7386;45.586;12.854;2023-04-25T14:44:32;4.28;;;1.38;;
14599;SDS011;7386;45.586;12.854;2023-04-25T14:47:02;4.10;;;1.35;;
14599;SDS011;7386;45.586;12.854;2023-04-25T14:49:31;2.35;;;1.50;;
14599;SDS011;7386;45.586;12.854;2023-04-25T14:51:59;3.00;;;1.55;;